sensor_id;sensor_type;location;lat;lon;timestamp;temperature;humidity
80258;DHT22;69565;37.974;23.708;2023-04-24T00:01:28;22.50;36.90
80258;DHT22;69565;37.974;23.708;2023-04-24T00:03:55;22.50;36.90
80258;DHT22;69565;37.974;23.708;2023-04-24T00:06:25;22.50;36.90
80258;DHT22;69565;37.974;23.708;2023-04-24T00:09:01;22.50;36.90
80258;DHT22;69565;37.974;23.708;2023-04-24T00:11:27;22.50;37.00
80258;DHT22;69565;37.974;23.708;2023-04-24T00:13:53;22.50;37.00
80258;DHT22;69565;37.974;23.708;2023-04-24T00:16:19;22.50;37.00
80258;DHT22;69565;37.974;23.708;2023-04-24T00:18:44;22.50;37.10
80258;DHT22;69565;37.974;23.708;2023-04-24T00:21:11;22.50;37.10
80258;DHT22;69565;37.974;23.708;2023-04-24T00:23:36;22.50;37.20
80258;DHT22;69565;37.974;23.708;2023-04-24T00:26:02;22.50;37.20
80258;DHT22;69565;37.974;23.708;2023-04-24T00:28:28;22.50;37.30
80258;DHT22;69565;37.974;23.708;2023-04-24T00:30:54;22.40;37.30
80258;DHT22;69565;37.974;23.708;2023-04-24T00:33:20;22.40;37.20
80258;DHT22;69565;37.974;23.708;2023-04-24T00:35:45;22.40;37.30
80258;DHT22;69565;37.974;23.708;2023-04-24T00:38:11;22.40;37.30
80258;DHT22;69565;37.974;23.708;2023-04-24T00:40:37;22.40;37.40
80258;DHT22;69565;37.974;23.708;2023-04-24T00:43:03;22.40;37.40
80258;DHT22;69565;37.974;23.708;2023-04-24T00:45:29;22.40;37.50
80258;DHT22;69565;37.974;23.708;2023-04-24T00:47:57;22.40;37.50
80258;DHT22;69565;37.974;23.708;2023-04-24T00:50:24;22.40;37.50
80258;DHT22;69565;37.974;23.708;2023-04-24T00:52:50;22.40;37.50
80258;DHT22;69565;37.974;23.708;2023-04-24T00:55:16;22.30;37.50
80258;DHT22;69565;37.974;23.708;2023-04-24T00:57:42;22.30;37.50
80258;DHT22;69565;37.974;23.708;2023-04-24T01:00:09;22.30;37.50
80258;DHT22;69565;37.974;23.708;2023-04-24T01:02:37;22.30;37.60
80258;DHT22;69565;37.974;23.708;2023-04-24T01:05:07;22.30;37.60
80258;DHT22;69565;37.974;23.708;2023-04-24T01:07:34;22.30;37.60
80258;DHT22;69565;37.974;23.708;2023-04-24T01:10:01;22.30;37.60
80258;DHT22;69565;37.974;23.708;2023-04-24T01:12:27;22.30;37.70
80258;DHT22;69565;37.974;23.708;2023-04-24T01:14:54;22.30;37.80
80258;DHT22;69565;37.974;23.708;2023-04-24T01:17:20;22.30;37.70
80258;DHT22;69565;37.974;23.708;2023-04-24T01:19:46;22.30;37.80
80258;DHT22;69565;37.974;23.708;2023-04-24T01:22:15;22.30;37.80
80258;DHT22;69565;37.974;23.708;2023-04-24T01:24:42;22.30;37.90
80258;DHT22;69565;37.974;23.708;2023-04-24T01:27:09;22.20;37.80
80258;DHT22;69565;37.974;23.708;2023-04-24T01:29:35;22.20;37.80
80258;DHT22;69565;37.974;23.708;2023-04-24T01:32:02;22.20;37.90
80258;DHT22;69565;37.974;23.708;2023-04-24T01:34:28;22.20;37.90
80258;DHT22;69565;37.974;23.708;2023-04-24T01:36:54;22.20;38.00
80258;DHT22;69565;37.974;23.708;2023-04-24T01:39:21;22.20;38.00
80258;DHT22;69565;37.974;23.708;2023-04-24T01:41:49;22.20;38.00
80258;DHT22;69565;37.974;23.708;2023-04-24T01:44:15;22.20;38.00
80258;DHT22;69565;37.974;23.708;2023-04-24T01:46:41;22.20;38.00
80258;DHT22;69565;37.974;23.708;2023-04-24T01:49:07;22.10;38.10
80258;DHT22;69565;37.974;23.708;2023-04-24T01:51:33;22.20;38.20
80258;DHT22;69565;37.974;23.708;2023-04-24T01:53:59;22.10;38.10
80258;DHT22;69565;37.974;23.708;2023-04-24T01:56:25;22.10;38.10
80258;DHT22;69565;37.974;23.708;2023-04-24T01:58:54;22.10;38.20
80258;DHT22;69565;37.974;23.708;2023-04-24T02:01:20;22.20;38.30
80258;DHT22;69565;37.974;23.708;2023-04-24T02:03:46;22.10;38.20
80258;DHT22;69565;37.974;23.708;2023-04-24T02:06:12;22.10;38.20
80258;DHT22;69565;37.974;23.708;2023-04-24T02:08:38;22.10;38.30
80258;DHT22;69565;37.974;23.708;2023-04-24T02:11:03;22.10;38.40
80258;DHT22;69565;37.974;23.708;2023-04-24T02:13:29;22.10;38.40
80258;DHT22;69565;37.974;23.708;2023-04-24T02:15:55;22.00;38.40
80258;DHT22;69565;37.974;23.708;2023-04-24T02:18:20;22.00;38.40
80258;DHT22;69565;37.974;23.708;2023-04-24T02:20:48;22.00;38.50
80258;DHT22;69565;37.974;23.708;2023-04-24T02:23:13;22.00;38.50
80258;DHT22;69565;37.974;23.708;2023-04-24T02:25:40;22.00;38.50
80258;DHT22;69565;37.974;23.708;2023-04-24T02:28:05;22.00;38.60
80258;DHT22;69565;37.974;23.708;2023-04-24T02:30:31;22.00;38.60
80258;DHT22;69565;37.974;23.708;2023-04-24T02:32:57;22.00;38.60
80258;DHT22;69565;37.974;23.708;2023-04-24T02:35:23;22.00;38.60
80258;DHT22;69565;37.974;23.708;2023-04-24T02:37:48;22.00;38.70
80258;DHT22;69565;37.974;23.708;2023-04-24T02:40:14;22.00;38.70
80258;DHT22;69565;37.974;23.708;2023-04-24T02:42:40;22.00;38.70
80258;DHT22;69565;37.974;23.708;2023-04-24T02:45:06;22.00;38.70
80258;DHT22;69565;37.974;23.708;2023-04-24T02:47:32;21.90;38.60
80258;DHT22;69565;37.974;23.708;2023-04-24T02:49:58;21.90;38.70
80258;DHT22;69565;37.974;23.708;2023-04-24T02:52:23;21.90;38.70
80258;DHT22;69565;37.974;23.708;2023-04-24T02:54:49;21.90;38.70
80258;DHT22;69565;37.974;23.708;2023-04-24T02:57:15;21.90;38.70
80258;DHT22;69565;37.974;23.708;2023-04-24T02:59:40;21.90;38.80
80258;DHT22;69565;37.974;23.708;2023-04-24T03:02:06;21.90;38.90
80258;DHT22;69565;37.974;23.708;2023-04-24T03:04:32;21.90;38.80
80258;DHT22;69565;37.974;23.708;2023-04-24T03:06:58;21.90;38.80
80258;DHT22;69565;37.974;23.708;2023-04-24T03:09:24;21.90;38.90
80258;DHT22;69565;37.974;23.708;2023-04-24T03:11:50;21.90;38.90
80258;DHT22;69565;37.974;23.708;2023-04-24T03:14:16;21.90;38.90
80258;DHT22;69565;37.974;23.708;2023-04-24T03:16:42;21.90;39.00
80258;DHT22;69565;37.974;23.708;2023-04-24T03:19:08;21.90;38.90
80258;DHT22;69565;37.974;23.708;2023-04-24T03:21:34;21.90;39.00
80258;DHT22;69565;37.974;23.708;2023-04-24T03:24:01;21.90;39.00
80258;DHT22;69565;37.974;23.708;2023-04-24T03:26:27;21.90;39.10
80258;DHT22;69565;37.974;23.708;2023-04-24T03:28:53;21.80;39.10
80258;DHT22;69565;37.974;23.708;2023-04-24T03:31:19;21.80;39.00
80258;DHT22;69565;37.974;23.708;2023-04-24T03:33:46;21.80;39.20
80258;DHT22;69565;37.974;23.708;2023-04-24T03:36:12;21.90;39.40
80258;DHT22;69565;37.974;23.708;2023-04-24T03:38:38;21.80;39.60
80258;DHT22;69565;37.974;23.708;2023-04-24T03:41:03;21.90;40.00
80258;DHT22;69565;37.974;23.708;2023-04-24T03:43:29;21.90;40.10
80258;DHT22;69565;37.974;23.708;2023-04-24T03:45:55;21.90;40.10
80258;DHT22;69565;37.974;23.708;2023-04-24T03:48:21;21.90;40.00
80258;DHT22;69565;37.974;23.708;2023-04-24T03:50:46;21.90;40.00
80258;DHT22;69565;37.974;23.708;2023-04-24T03:53:12;21.90;39.90
80258;DHT22;69565;37.974;23.708;2023-04-24T03:55:38;22.00;40.00
80258;DHT22;69565;37.974;23.708;2023-04-24T03:58:03;22.00;39.90
80258;DHT22;69565;37.974;23.708;2023-04-24T04:00:29;22.00;39.80
80258;DHT22;69565;37.974;23.708;2023-04-24T04:02:58;22.00;39.80
80258;DHT22;69565;37.974;23.708;2023-04-24T04:05:24;22.00;39.80
80258;DHT22;69565;37.974;23.708;2023-04-24T04:07:50;22.00;39.80
80258;DHT22;69565;37.974;23.708;2023-04-24T04:10:15;22.00;39.90
80258;DHT22;69565;37.974;23.708;2023-04-24T04:12:42;22.00;39.80
80258;DHT22;69565;37.974;23.708;2023-04-24T04:15:08;22.00;39.80
80258;DHT22;69565;37.974;23.708;2023-04-24T04:17:34;22.00;39.90
80258;DHT22;69565;37.974;23.708;2023-04-24T04:20:00;22.10;40.40
80258;DHT22;69565;37.974;23.708;2023-04-24T04:22:26;22.10;40.80
80258;DHT22;69565;37.974;23.708;2023-04-24T04:24:52;22.10;41.10
80258;DHT22;69565;37.974;23.708;2023-04-24T04:27:18;22.10;41.30
80258;DHT22;69565;37.974;23.708;2023-04-24T04:29:44;22.10;41.30
80258;DHT22;69565;37.974;23.708;2023-04-24T04:32:10;22.20;41.20
80258;DHT22;69565;37.974;23.708;2023-04-24T04:34:35;22.20;40.90
80258;DHT22;69565;37.974;23.708;2023-04-24T04:37:03;22.20;40.80
80258;DHT22;69565;37.974;23.708;2023-04-24T04:39:29;22.30;40.70
80258;DHT22;69565;37.974;23.708;2023-04-24T04:41:55;22.40;40.50
80258;DHT22;69565;37.974;23.708;2023-04-24T04:44:21;22.40;40.20
80258;DHT22;69565;37.974;23.708;2023-04-24T04:46:47;22.40;40.00
80258;DHT22;69565;37.974;23.708;2023-04-24T04:49:13;22.50;40.00
80258;DHT22;69565;37.974;23.708;2023-04-24T04:51:42;22.50;39.70
80258;DHT22;69565;37.974;23.708;2023-04-24T04:54:07;22.60;39.60
80258;DHT22;69565;37.974;23.708;2023-04-24T04:56:33;22.70;39.50
80258;DHT22;69565;37.974;23.708;2023-04-24T04:58:59;22.70;39.30
80258;DHT22;69565;37.974;23.708;2023-04-24T05:01:25;22.80;39.20
80258;DHT22;69565;37.974;23.708;2023-04-24T05:03:53;22.80;38.90
80258;DHT22;69565;37.974;23.708;2023-04-24T05:06:19;22.90;38.90
80258;DHT22;69565;37.974;23.708;2023-04-24T05:08:44;23.00;38.70
80258;DHT22;69565;37.974;23.708;2023-04-24T05:11:10;23.10;38.50
80258;DHT22;69565;37.974;23.708;2023-04-24T05:13:36;23.20;38.40
80258;DHT22;69565;37.974;23.708;2023-04-24T05:16:01;23.30;38.10
80258;DHT22;69565;37.974;23.708;2023-04-24T05:18:27;23.30;38.00
80258;DHT22;69565;37.974;23.708;2023-04-24T05:20:53;23.40;37.90
80258;DHT22;69565;37.974;23.708;2023-04-24T05:23:18;23.50;37.60
80258;DHT22;69565;37.974;23.708;2023-04-24T05:25:44;23.60;37.50
80258;DHT22;69565;37.974;23.708;2023-04-24T05:28:11;23.70;37.30
80258;DHT22;69565;37.974;23.708;2023-04-24T05:30:37;23.80;37.30
80258;DHT22;69565;37.974;23.708;2023-04-24T05:33:02;23.90;37.00
80258;DHT22;69565;37.974;23.708;2023-04-24T05:35:28;24.00;36.90
80258;DHT22;69565;37.974;23.708;2023-04-24T05:37:54;24.10;36.60
80258;DHT22;69565;37.974;23.708;2023-04-24T05:40:20;24.20;36.40
80258;DHT22;69565;37.974;23.708;2023-04-24T05:42:45;24.30;36.20
80258;DHT22;69565;37.974;23.708;2023-04-24T05:45:11;24.40;36.00
80258;DHT22;69565;37.974;23.708;2023-04-24T05:47:42;24.50;35.80
80258;DHT22;69565;37.974;23.708;2023-04-24T05:50:09;24.60;35.60
80258;DHT22;69565;37.974;23.708;2023-04-24T05:52:35;24.70;35.50
80258;DHT22;69565;37.974;23.708;2023-04-24T05:55:01;24.80;35.30
80258;DHT22;69565;37.974;23.708;2023-04-24T05:57:26;24.90;35.10
80258;DHT22;69565;37.974;23.708;2023-04-24T05:59:52;25.00;34.80
80258;DHT22;69565;37.974;23.708;2023-04-24T06:02:18;25.10;34.70
80258;DHT22;69565;37.974;23.708;2023-04-24T06:04:44;25.20;34.40
80258;DHT22;69565;37.974;23.708;2023-04-24T06:07:13;25.40;34.20
80258;DHT22;69565;37.974;23.708;2023-04-24T06:09:39;25.50;34.00
80258;DHT22;69565;37.974;23.708;2023-04-24T06:12:04;25.60;33.90
80258;DHT22;69565;37.974;23.708;2023-04-24T06:14:32;25.60;33.70
80258;DHT22;69565;37.974;23.708;2023-04-24T06:16:58;25.80;33.60
80258;DHT22;69565;37.974;23.708;2023-04-24T06:19:24;25.80;33.40
80258;DHT22;69565;37.974;23.708;2023-04-24T06:21:49;25.90;33.30
80258;DHT22;69565;37.974;23.708;2023-04-24T06:24:15;26.00;33.20
80258;DHT22;69565;37.974;23.708;2023-04-24T06:26:44;26.10;33.10
80258;DHT22;69565;37.974;23.708;2023-04-24T06:29:09;26.20;32.90
80258;DHT22;69565;37.974;23.708;2023-04-24T06:31:35;26.30;32.80
80258;DHT22;69565;37.974;23.708;2023-04-24T06:34:03;26.40;32.70
80258;DHT22;69565;37.974;23.708;2023-04-24T06:36:29;26.50;32.50
80258;DHT22;69565;37.974;23.708;2023-04-24T06:38:56;26.60;32.40
80258;DHT22;69565;37.974;23.708;2023-04-24T06:41:22;26.70;32.20
80258;DHT22;69565;37.974;23.708;2023-04-24T06:43:48;26.70;32.10
80258;DHT22;69565;37.974;23.708;2023-04-24T06:46:14;26.80;32.00
80258;DHT22;69565;37.974;23.708;2023-04-24T06:48:39;26.90;31.80
80258;DHT22;69565;37.974;23.708;2023-04-24T06:51:05;27.00;31.80
80258;DHT22;69565;37.974;23.708;2023-04-24T06:53:31;27.10;31.60
80258;DHT22;69565;37.974;23.708;2023-04-24T06:55:57;27.20;31.60
80258;DHT22;69565;37.974;23.708;2023-04-24T06:58:23;27.20;31.40
80258;DHT22;69565;37.974;23.708;2023-04-24T07:00:49;27.30;31.40
80258;DHT22;69565;37.974;23.708;2023-04-24T07:03:15;27.30;31.20
80258;DHT22;69565;37.974;23.708;2023-04-24T07:05:41;27.40;31.10
80258;DHT22;69565;37.974;23.708;2023-04-24T07:08:07;27.50;31.10
80258;DHT22;69565;37.974;23.708;2023-04-24T07:10:34;27.60;31.00
80258;DHT22;69565;37.974;23.708;2023-04-24T07:13:01;27.60;30.80
80258;DHT22;69565;37.974;23.708;2023-04-24T07:15:26;27.70;30.80
80258;DHT22;69565;37.974;23.708;2023-04-24T07:17:52;27.70;30.60
80258;DHT22;69565;37.974;23.708;2023-04-24T07:20:18;27.80;30.60
80258;DHT22;69565;37.974;23.708;2023-04-24T07:22:44;27.80;30.60
80258;DHT22;69565;37.974;23.708;2023-04-24T07:25:09;27.90;30.50
80258;DHT22;69565;37.974;23.708;2023-04-24T07:27:35;28.00;30.60
80258;DHT22;69565;37.974;23.708;2023-04-24T07:30:02;28.00;30.50
80258;DHT22;69565;37.974;23.708;2023-04-24T07:32:29;28.10;30.40
80258;DHT22;69565;37.974;23.708;2023-04-24T07:34:55;28.10;30.30
80258;DHT22;69565;37.974;23.708;2023-04-24T07:37:20;28.20;30.20
80258;DHT22;69565;37.974;23.708;2023-04-24T07:39:46;28.20;30.10
80258;DHT22;69565;37.974;23.708;2023-04-24T07:42:12;28.20;30.00
80258;DHT22;69565;37.974;23.708;2023-04-24T07:44:38;28.20;30.00
80258;DHT22;69565;37.974;23.708;2023-04-24T07:47:04;28.30;30.00
80258;DHT22;69565;37.974;23.708;2023-04-24T07:49:30;28.30;30.00
80258;DHT22;69565;37.974;23.708;2023-04-24T07:51:55;28.30;30.00
80258;DHT22;69565;37.974;23.708;2023-04-24T07:54:21;28.30;30.00
80258;DHT22;69565;37.974;23.708;2023-04-24T07:56:48;28.30;30.10
80258;DHT22;69565;37.974;23.708;2023-04-24T07:59:13;28.20;30.10
80258;DHT22;69565;37.974;23.708;2023-04-24T08:01:39;28.10;30.30
80258;DHT22;69565;37.974;23.708;2023-04-24T08:04:05;28.00;30.50
80258;DHT22;69565;37.974;23.708;2023-04-24T08:06:31;27.90;30.70
80258;DHT22;69565;37.974;23.708;2023-04-24T08:08:57;27.80;30.90
80258;DHT22;69565;37.974;23.708;2023-04-24T08:11:24;27.70;31.00
80258;DHT22;69565;37.974;23.708;2023-04-24T08:13:50;27.60;31.30
80258;DHT22;69565;37.974;23.708;2023-04-24T08:16:15;27.50;31.50
80258;DHT22;69565;37.974;23.708;2023-04-24T08:18:41;27.40;31.60
80258;DHT22;69565;37.974;23.708;2023-04-24T08:21:07;27.30;31.80
80258;DHT22;69565;37.974;23.708;2023-04-24T08:23:32;27.20;31.90
80258;DHT22;69565;37.974;23.708;2023-04-24T08:25:58;27.10;32.10
80258;DHT22;69565;37.974;23.708;2023-04-24T08:28:25;27.10;32.20
80258;DHT22;69565;37.974;23.708;2023-04-24T08:30:51;27.00;32.50
80258;DHT22;69565;37.974;23.708;2023-04-24T08:33:21;27.00;32.70
80258;DHT22;69565;37.974;23.708;2023-04-24T08:35:47;26.90;32.90
80258;DHT22;69565;37.974;23.708;2023-04-24T08:38:13;26.90;33.00
80258;DHT22;69565;37.974;23.708;2023-04-24T08:40:39;26.90;33.30
80258;DHT22;69565;37.974;23.708;2023-04-24T08:43:05;26.90;33.30
80258;DHT22;69565;37.974;23.708;2023-04-24T08:45:32;26.90;33.40
80258;DHT22;69565;37.974;23.708;2023-04-24T08:47:58;26.90;34.60
80258;DHT22;69565;37.974;23.708;2023-04-24T08:50:25;26.90;33.60
80258;DHT22;69565;37.974;23.708;2023-04-24T08:52:52;26.90;33.60
80258;DHT22;69565;37.974;23.708;2023-04-24T08:55:19;26.90;33.70
80258;DHT22;69565;37.974;23.708;2023-04-24T08:57:50;26.90;33.70
80258;DHT22;69565;37.974;23.708;2023-04-24T09:00:17;26.90;33.60
80258;DHT22;69565;37.974;23.708;2023-04-24T09:02:43;26.90;33.70
80258;DHT22;69565;37.974;23.708;2023-04-24T09:05:10;26.80;33.60
80258;DHT22;69565;37.974;23.708;2023-04-24T09:07:38;26.80;33.60
80258;DHT22;69565;37.974;23.708;2023-04-24T09:10:05;26.80;33.50
80258;DHT22;69565;37.974;23.708;2023-04-24T09:12:33;26.80;33.50
80258;DHT22;69565;37.974;23.708;2023-04-24T09:15:00;26.70;33.40
80258;DHT22;69565;37.974;23.708;2023-04-24T09:17:30;26.70;33.40
80258;DHT22;69565;37.974;23.708;2023-04-24T09:19:56;26.70;33.60
80258;DHT22;69565;37.974;23.708;2023-04-24T09:22:21;26.70;33.60
80258;DHT22;69565;37.974;23.708;2023-04-24T09:24:47;26.60;33.50
80258;DHT22;69565;37.974;23.708;2023-04-24T09:27:13;26.70;33.60
80258;DHT22;69565;37.974;23.708;2023-04-24T09:30:02;26.60;33.60
80258;DHT22;69565;37.974;23.708;2023-04-24T09:32:28;26.60;33.70
80258;DHT22;69565;37.974;23.708;2023-04-24T09:35:15;26.60;33.70
80258;DHT22;69565;37.974;23.708;2023-04-24T09:37:45;26.60;33.80
80258;DHT22;69565;37.974;23.708;2023-04-24T09:40:18;26.60;34.00
80258;DHT22;69565;37.974;23.708;2023-04-24T09:42:52;26.60;34.10
80258;DHT22;69565;37.974;23.708;2023-04-24T09:45:18;26.60;35.10
80258;DHT22;69565;37.974;23.708;2023-04-24T09:47:44;26.60;34.10
80258;DHT22;69565;37.974;23.708;2023-04-24T09:50:11;26.60;34.20
80258;DHT22;69565;37.974;23.708;2023-04-24T09:53:03;26.60;34.30
80258;DHT22;69565;37.974;23.708;2023-04-24T09:55:29;26.60;34.40
80258;DHT22;69565;37.974;23.708;2023-04-24T09:57:57;26.50;34.40
80258;DHT22;69565;37.974;23.708;2023-04-24T10:00:27;26.50;34.40
80258;DHT22;69565;37.974;23.708;2023-04-24T10:03:00;26.60;34.60
80258;DHT22;69565;37.974;23.708;2023-04-24T10:05:30;26.50;34.50
80258;DHT22;69565;37.974;23.708;2023-04-24T10:08:09;26.60;34.70
80258;DHT22;69565;37.974;23.708;2023-04-24T10:10:44;26.60;34.70
80258;DHT22;69565;37.974;23.708;2023-04-24T10:13:12;26.50;34.60
80258;DHT22;69565;37.974;23.708;2023-04-24T10:15:38;26.60;34.70
80258;DHT22;69565;37.974;23.708;2023-04-24T10:18:04;26.50;34.70
80258;DHT22;69565;37.974;23.708;2023-04-24T10:20:32;26.50;34.70
80258;DHT22;69565;37.974;23.708;2023-04-24T10:22:59;26.50;34.70
80258;DHT22;69565;37.974;23.708;2023-04-24T10:25:30;26.50;34.80
80258;DHT22;69565;37.974;23.708;2023-04-24T10:27:57;26.50;34.90
80258;DHT22;69565;37.974;23.708;2023-04-24T10:30:27;26.50;35.00
80258;DHT22;69565;37.974;23.708;2023-04-24T10:32:53;26.50;35.10
80258;DHT22;69565;37.974;23.708;2023-04-24T10:35:19;26.40;35.10
80258;DHT22;69565;37.974;23.708;2023-04-24T10:37:57;26.50;35.10
80258;DHT22;69565;37.974;23.708;2023-04-24T10:40:34;26.50;35.20
80258;DHT22;69565;37.974;23.708;2023-04-24T10:43:03;26.40;35.30
80258;DHT22;69565;37.974;23.708;2023-04-24T10:45:32;26.40;35.20
80258;DHT22;69565;37.974;23.708;2023-04-24T10:48:05;26.40;35.20
80258;DHT22;69565;37.974;23.708;2023-04-24T10:50:50;26.40;35.20
80258;DHT22;69565;37.974;23.708;2023-04-24T10:53:18;26.40;35.30
80258;DHT22;69565;37.974;23.708;2023-04-24T10:58:14;26.40;35.30
80258;DHT22;69565;37.974;23.708;2023-04-24T11:00:42;26.30;35.30
80258;DHT22;69565;37.974;23.708;2023-04-24T11:03:30;26.40;35.30
80258;DHT22;69565;37.974;23.708;2023-04-24T11:06:02;26.40;35.50
80258;DHT22;69565;37.974;23.708;2023-04-24T11:19:24;26.20;35.50
80258;DHT22;69565;37.974;23.708;2023-04-24T11:22:01;26.30;35.50
80258;DHT22;69565;37.974;23.708;2023-04-24T11:27:20;26.30;35.50
80258;DHT22;69565;37.974;23.708;2023-04-24T11:32:34;26.20;35.40
80258;DHT22;69565;37.974;23.708;2023-04-24T11:35:02;26.20;35.30
80258;DHT22;69565;37.974;23.708;2023-04-24T11:37:37;26.20;35.20
80258;DHT22;69565;37.974;23.708;2023-04-24T11:40:05;26.20;35.20
80258;DHT22;69565;37.974;23.708;2023-04-24T11:42:39;26.20;35.20
80258;DHT22;69565;37.974;23.708;2023-04-24T11:47:35;26.20;35.20
80258;DHT22;69565;37.974;23.708;2023-04-24T11:50:02;26.20;35.30
80258;DHT22;69565;37.974;23.708;2023-04-24T11:52:29;26.20;35.40
80258;DHT22;69565;37.974;23.708;2023-04-24T11:54:56;26.20;35.40
80258;DHT22;69565;37.974;23.708;2023-04-24T11:57:23;26.10;35.60
80258;DHT22;69565;37.974;23.708;2023-04-24T11:59:50;26.10;35.50
80258;DHT22;69565;37.974;23.708;2023-04-24T12:02:23;26.10;35.60
80258;DHT22;69565;37.974;23.708;2023-04-24T12:04:48;26.20;35.70
80258;DHT22;69565;37.974;23.708;2023-04-24T12:07:14;26.10;35.70
80258;DHT22;69565;37.974;23.708;2023-04-24T12:09:56;26.10;35.80
80258;DHT22;69565;37.974;23.708;2023-04-24T12:12:25;26.10;36.00
80258;DHT22;69565;37.974;23.708;2023-04-24T12:14:56;26.10;36.00
80258;DHT22;69565;37.974;23.708;2023-04-24T12:19:51;26.10;36.20
80258;DHT22;69565;37.974;23.708;2023-04-24T12:22:17;26.10;36.20
80258;DHT22;69565;37.974;23.708;2023-04-24T12:25:03;26.10;36.20
80258;DHT22;69565;37.974;23.708;2023-04-24T12:27:33;26.10;36.20
80258;DHT22;69565;37.974;23.708;2023-04-24T12:30:01;26.00;36.20
80258;DHT22;69565;37.974;23.708;2023-04-24T12:32:27;26.10;36.20
80258;DHT22;69565;37.974;23.708;2023-04-24T12:34:54;26.00;35.90
80258;DHT22;69565;37.974;23.708;2023-04-24T12:37:20;26.00;35.90
80258;DHT22;69565;37.974;23.708;2023-04-24T12:42:27;26.10;35.80
80258;DHT22;69565;37.974;23.708;2023-04-24T12:44:57;26.10;36.80
80258;DHT22;69565;37.974;23.708;2023-04-24T12:47:24;26.10;35.70
80258;DHT22;69565;37.974;23.708;2023-04-24T12:49:50;26.00;35.60
80258;DHT22;69565;37.974;23.708;2023-04-24T12:52:18;26.00;35.60
80258;DHT22;69565;37.974;23.708;2023-04-24T12:54:45;26.00;35.60
80258;DHT22;69565;37.974;23.708;2023-04-24T12:57:11;26.00;35.60
80258;DHT22;69565;37.974;23.708;2023-04-24T12:59:37;26.10;35.60
80258;DHT22;69565;37.974;23.708;2023-04-24T13:02:05;26.00;35.40
80258;DHT22;69565;37.974;23.708;2023-04-24T13:04:31;26.00;35.30
80258;DHT22;69565;37.974;23.708;2023-04-24T13:06:57;26.00;35.30
80258;DHT22;69565;37.974;23.708;2023-04-24T13:09:23;26.00;35.20
80258;DHT22;69565;37.974;23.708;2023-04-24T13:11:50;26.00;35.00
80258;DHT22;69565;37.974;23.708;2023-04-24T13:14:16;26.00;34.90
80258;DHT22;69565;37.974;23.708;2023-04-24T13:16:41;26.00;34.70
80258;DHT22;69565;37.974;23.708;2023-04-24T13:19:07;26.00;34.50
80258;DHT22;69565;37.974;23.708;2023-04-24T13:21:33;26.00;34.40
80258;DHT22;69565;37.974;23.708;2023-04-24T13:23:58;26.00;34.40
80258;DHT22;69565;37.974;23.708;2023-04-24T13:26:25;26.00;34.40
80258;DHT22;69565;37.974;23.708;2023-04-24T13:28:50;25.90;34.40
80258;DHT22;69565;37.974;23.708;2023-04-24T13:31:16;25.90;34.50
80258;DHT22;69565;37.974;23.708;2023-04-24T13:33:42;25.90;34.50
80258;DHT22;69565;37.974;23.708;2023-04-24T13:36:08;25.90;34.60
80258;DHT22;69565;37.974;23.708;2023-04-24T13:38:34;25.90;34.50
80258;DHT22;69565;37.974;23.708;2023-04-24T13:41:00;25.80;34.50
80258;DHT22;69565;37.974;23.708;2023-04-24T13:43:26;25.80;34.60
80258;DHT22;69565;37.974;23.708;2023-04-24T13:45:52;25.80;34.80
80258;DHT22;69565;37.974;23.708;2023-04-24T13:48:18;25.80;34.90
80258;DHT22;69565;37.974;23.708;2023-04-24T13:50:44;25.80;35.00
80258;DHT22;69565;37.974;23.708;2023-04-24T13:53:10;25.80;35.10
80258;DHT22;69565;37.974;23.708;2023-04-24T13:55:35;25.80;35.20
80258;DHT22;69565;37.974;23.708;2023-04-24T13:58:02;25.70;35.20
80258;DHT22;69565;37.974;23.708;2023-04-24T14:00:28;25.80;35.40
80258;DHT22;69565;37.974;23.708;2023-04-24T14:02:54;25.80;35.40
80258;DHT22;69565;37.974;23.708;2023-04-24T14:05:19;25.70;35.40
80258;DHT22;69565;37.974;23.708;2023-04-24T14:07:47;25.70;35.50
80258;DHT22;69565;37.974;23.708;2023-04-24T14:10:12;25.70;35.60
80258;DHT22;69565;37.974;23.708;2023-04-24T14:12:38;25.70;35.70
80258;DHT22;69565;37.974;23.708;2023-04-24T14:15:04;25.70;35.80
80258;DHT22;69565;37.974;23.708;2023-04-24T14:17:30;25.70;35.90
80258;DHT22;69565;37.974;23.708;2023-04-24T14:19:56;25.60;35.80
80258;DHT22;69565;37.974;23.708;2023-04-24T14:22:25;25.60;35.80
80258;DHT22;69565;37.974;23.708;2023-04-24T14:24:51;25.70;36.00
80258;DHT22;69565;37.974;23.708;2023-04-24T14:27:16;25.60;35.90
80258;DHT22;69565;37.974;23.708;2023-04-24T14:29:42;25.60;35.90
80258;DHT22;69565;37.974;23.708;2023-04-24T14:32:08;25.60;35.80
80258;DHT22;69565;37.974;23.708;2023-04-24T14:34:34;25.60;35.80
80258;DHT22;69565;37.974;23.708;2023-04-24T14:37:00;25.50;35.80
80258;DHT22;69565;37.974;23.708;2023-04-24T14:39:26;25.50;35.50
80258;DHT22;69565;37.974;23.708;2023-04-24T14:41:51;25.50;35.50
80258;DHT22;69565;37.974;23.708;2023-04-24T14:44:17;25.50;35.50
80258;DHT22;69565;37.974;23.708;2023-04-24T14:46:43;25.50;35.40
80258;DHT22;69565;37.974;23.708;2023-04-24T14:49:09;25.50;35.50
80258;DHT22;69565;37.974;23.708;2023-04-24T14:51:36;25.50;35.60
80258;DHT22;69565;37.974;23.708;2023-04-24T14:54:01;25.40;35.70
80258;DHT22;69565;37.974;23.708;2023-04-24T14:56:28;25.40;35.70
80258;DHT22;69565;37.974;23.708;2023-04-24T14:58:53;25.40;36.00
80258;DHT22;69565;37.974;23.708;2023-04-24T15:01:20;25.40;36.20
80258;DHT22;69565;37.974;23.708;2023-04-24T15:03:46;25.40;36.40
80258;DHT22;69565;37.974;23.708;2023-04-24T15:06:12;25.40;36.50
80258;DHT22;69565;37.974;23.708;2023-04-24T15:08:38;25.40;36.30
80258;DHT22;69565;37.974;23.708;2023-04-24T15:11:04;25.40;36.30
80258;DHT22;69565;37.974;23.708;2023-04-24T15:13:29;25.40;36.20
80258;DHT22;69565;37.974;23.708;2023-04-24T15:15:55;25.30;35.90
80258;DHT22;69565;37.974;23.708;2023-04-24T15:18:21;25.30;35.60
80258;DHT22;69565;37.974;23.708;2023-04-24T15:20:47;25.30;35.50
80258;DHT22;69565;37.974;23.708;2023-04-24T15:23:12;25.30;35.40
80258;DHT22;69565;37.974;23.708;2023-04-24T15:25:38;25.30;35.40
80258;DHT22;69565;37.974;23.708;2023-04-24T15:28:05;25.30;35.40
80258;DHT22;69565;37.974;23.708;2023-04-24T15:30:31;25.30;36.40
80258;DHT22;69565;37.974;23.708;2023-04-24T15:32:57;25.30;35.30
80258;DHT22;69565;37.974;23.708;2023-04-24T15:35:22;25.30;35.30
80258;DHT22;69565;37.974;23.708;2023-04-24T15:37:49;25.30;35.30
80258;DHT22;69565;37.974;23.708;2023-04-24T15:40:15;25.30;35.30